Murdock, Ohio
Current Conditions -  °F | °C
As of 3:53 PM on Friday 31 Oct 2014 (Local Time) from KLUK Reporting Station
Light Rain Light Rain  
Wind Chill: 34°   Ceiling: 3400
Heat Index: 41°   Visibility: 10mi
Dew Point: 36°   Wind: 13mph
Humidity: 82%   Direction: 320°NW
Pressure: 29.95"   Gusts: 18mph
Location:  39.23°N, 84.2394°W
Report Text: KLUK 311953Z 32011G16KT 10SM -RA FEW022 BKN034 OVC044 05/02 A2995 RMK AO2 SLP143 P0002 T00500022
Loading
Personal Weather Stations






























Interactive Weather Map
Tropical Storm Tracking
New forecast layout! Learn more

10-Day Weather Forecast

Advertisements
Track Severe Weather on mobile